Main page
METAR-TAF:

METAR-TAF

Airports :

Hihifo Airport

Wallis, France

latitude: 13-14S, longitude: 176-10W, elevation: 23 m

Current weather observation

The report was made 32 minutes ago, at 04:00 UTC
Wind 5 kt from the East/Southeast, varying between East/Northeast and South/Southeast
Temperature 29°C
Humidity 79%
Pressure 1005 hPa
Visibility 10 km or more
Few clouds at a height of 1800 ft
Scattered clouds at a height of 25000 ft

METAR: NLWW 240400Z 11005KT 070V150 9999 FEW018 SCT250 29/25 Q1005 TEMPO 4000 SHRA SCT020TCU

Time: 16:32 (04:32 UTC)

Forecast

The report was made 5 hours and 32 minutes ago, at 23:00 UTC
Forecast valid from 24 at 00 UTC to 24 at 24 UTC
Wind 8 kt from the East/Southeast
Visibility 10 km or more
Few clouds at a height of 2000 ft
Scattered clouds at a height of 22000 ft
Temporary
from 24 at 00 UTC to 24 at 15 UTC
Visibility: 4000 m
Scattered clouds at a height of 2000 ft, Towering cumulus.
rain showers

TAF: NLWW 232300Z 2400/2424 11008KT 9999 FEW020 SCT220 TEMPO 2400/2415 4000 SHRA SCT020TCU

Weather observations and forecasts of more than 4000 airports (METAR and TAF reports).

The available stations are represented by yellow and red dots on the map.

Hover mouse over dot to see the name of the station.

Then click to see weather observations and forecasts.

To change the map : click on the green buttons with a black cross to zoom in, on the green button with a dash to zoom out, or on the green arrows for adjacent maps.


METAR-TAF: